Time;durP1;ratioP1;P1;durP2;ratioP2;P2;SDS_P1;SDS_P2;PMS_P1;PMS_P2;Temp;Humidity;BMP_temperature;BMP_pressure;BME280_temperature;BME280_humidity;BME280_pressure;Samples;Min_cycle;Max_cycle;Signal;HPM_P1;HPM_P2
2022/11/14 00:02:24;;;;;;;35.85;16.33;;;6.60;99.90;;;;;;6160464;23;20099;-75
2022/11/14 00:04:50;;;;;;;30.70;14.95;;;6.70;99.90;;;;;;6187039;23;20017;-75
2022/11/14 00:07:15;;;;;;;33.00;14.88;;;6.60;99.90;;;;;;6160441;23;20017;-75
2022/11/14 00:09:41;;;;;;;29.45;13.82;;;6.60;99.90;;;;;;6187052;23;20373;-76
2022/11/14 00:12:08;;;;;;;28.05;13.13;;;6.70;99.90;;;;;;6160425;23;20389;-75
2022/11/14 00:14:35;;;;;;;28.90;12.80;;;6.80;99.90;;;;;;6186447;23;20028;-76
2022/11/14 00:17:01;;;;;;;28.48;14.48;;;6.80;99.90;;;;;;6184970;23;20327;-76
2022/11/14 00:19:26;;;;;;;28.98;12.88;;;6.80;99.90;;;;;;6186967;23;20024;-76
2022/11/14 00:21:52;;;;;;;29.90;15.05;;;6.80;99.90;;;;;;6160243;23;20031;-76
2022/11/14 00:24:18;;;;;;;29.92;13.85;;;6.70;99.90;;;;;;6186887;23;20053;-76
2022/11/14 00:26:44;;;;;;;32.47;15.05;;;6.70;99.90;;;;;;6160192;23;20457;-75
2022/11/14 00:29:11;;;;;;;27.77;13.43;;;6.70;99.90;;;;;;6160142;23;20024;-76
2022/11/14 00:31:37;;;;;;;33.65;15.52;;;6.70;99.90;;;;;;6186527;23;20025;-76
2022/11/14 00:34:02;;;;;;;26.38;13.13;;;6.80;99.90;;;;;;6186500;23;20475;-76
2022/11/14 00:36:28;;;;;;;28.58;12.70;;;6.80;99.90;;;;;;6160074;23;20021;-76
2022/11/14 00:38:54;;;;;;;33.20;15.40;;;6.80;99.90;;;;;;6160095;23;20100;-75
2022/11/14 00:41:20;;;;;;;27.55;13.15;;;6.80;99.90;;;;;;6160120;23;20021;-76
2022/11/14 00:43:45;;;;;;;25.33;12.35;;;6.80;99.90;;;;;;6159991;23;20050;-76
2022/11/14 00:46:11;;;;;;;29.10;13.18;;;6.80;99.90;;;;;;6186701;23;20040;-76
2022/11/14 00:48:37;;;;;;;32.65;14.30;;;6.90;99.90;;;;;;6159930;23;20021;-76
2022/11/14 00:51:03;;;;;;;32.55;14.63;;;6.90;99.90;;;;;;6186204;23;20021;-75
2022/11/14 00:53:29;;;;;;;26.02;13.90;;;6.90;99.90;;;;;;6159983;23;20051;-76
2022/11/14 00:55:54;;;;;;;30.50;14.18;;;6.90;99.90;;;;;;6186293;23;20072;-75
2022/11/14 00:58:20;;;;;;;29.98;14.38;;;6.90;99.90;;;;;;6186516;23;20017;-76
2022/11/14 01:00:46;;;;;;;30.20;14.70;;;6.90;99.90;;;;;;6159914;23;20430;-76
2022/11/14 01:03:11;;;;;;;28.55;14.50;;;6.90;99.90;;;;;;6159840;23;20025;-76
2022/11/14 01:05:45;;;;;;;34.50;15.77;;;7.00;99.90;;;;;;6186550;23;20020;-76
2022/11/14 01:08:12;;;;;;;29.95;14.18;;;6.90;99.90;;;;;;6186266;23;20023;-76
2022/11/14 01:10:43;;;;;;;31.50;14.68;;;7.00;99.90;;;;;;6159777;23;20127;-76
2022/11/14 01:13:10;;;;;;;29.48;13.50;;;7.00;99.90;;;;;;6186182;23;20029;-76
2022/11/14 01:15:40;;;;;;;33.15;14.70;;;7.00;99.90;;;;;;6159504;23;20023;-76
2022/11/14 01:18:06;;;;;;;32.72;15.10;;;7.10;99.90;;;;;;6159732;23;20017;-76
2022/11/14 01:20:32;;;;;;;35.08;16.10;;;7.00;99.90;;;;;;6159751;23;20061;-76
2022/11/14 01:22:58;;;;;;;32.10;15.73;;;7.10;99.90;;;;;;6159739;23;20017;-76
2022/11/14 01:25:23;;;;;;;31.60;15.88;;;7.10;99.90;;;;;;6186029;23;20021;-76
2022/11/14 01:27:49;;;;;;;35.22;15.38;;;7.10;99.90;;;;;;6186365;23;20044;-76
2022/11/14 01:30:15;;;;;;;33.10;15.57;;;7.10;99.90;;;;;;6159751;23;20100;-76
2022/11/14 01:32:40;;;;;;;34.90;16.27;;;7.10;99.90;;;;;;6186364;23;20009;-76
2022/11/14 01:35:06;;;;;;;35.60;16.48;;;7.00;99.90;;;;;;6159751;23;20021;-76
2022/11/14 01:37:32;;;;;;;33.33;17.02;;;7.10;99.90;;;;;;6159583;23;20124;-75
2022/11/14 01:39:58;;;;;;;37.30;17.52;;;7.00;99.90;;;;;;6186287;23;20013;-75
2022/11/14 01:42:23;;;;;;;38.55;18.05;;;7.10;99.90;;;;;;6159640;23;20100;-76
2022/11/14 01:44:53;;;;;;;42.38;18.85;;;7.10;99.90;;;;;;6185974;23;20047;-75
2022/11/14 01:47:26;;;;;;;40.60;19.45;;;7.10;99.90;;;;;;6159623;23;20341;-75
2022/11/14 01:49:56;;;;;;;35.92;17.20;;;7.10;99.90;;;;;;6186066;23;20028;-75
2022/11/14 01:52:32;;;;;;;40.03;19.13;;;7.10;99.90;;;;;;6159670;23;20017;-75
2022/11/14 01:55:01;;;;;;;41.80;21.05;;;7.10;99.90;;;;;;6159638;23;20047;-76
2022/11/14 01:57:35;;;;;;;44.47;21.83;;;7.20;99.90;;;;;;6159415;23;20053;-76
2022/11/14 02:00:05;;;;;;;41.75;20.85;;;7.20;99.90;;;;;;6159621;23;20116;-76
2022/11/14 02:02:31;;;;;;;44.72;22.65;;;7.20;99.90;;;;;;6186083;23;20021;-76
2022/11/14 02:05:02;;;;;;;45.90;22.08;;;7.20;99.90;;;;;;6161598;23;20017;-76
2022/11/14 02:07:31;;;;;;;43.47;21.98;;;7.20;99.90;;;;;;6162442;23;20017;-76
2022/11/14 02:10:00;;;;;;;45.92;23.75;;;7.10;99.90;;;;;;6161587;23;20046;-76
2022/11/14 02:12:25;;;;;;;48.38;25.35;;;7.10;99.90;;;;;;6161484;23;20013;-75
2022/11/14 02:14:54;;;;;;;47.15;23.52;;;7.10;99.90;;;;;;6156288;23;20021;-76
2022/11/14 02:17:20;;;;;;;45.42;22.65;;;7.10;99.90;;;;;;6131698;23;20045;-75
2022/11/14 02:19:56;;;;;;;46.50;24.80;;;7.10;99.90;;;;;;6131893;23;20009;-76
2022/11/14 02:22:22;;;;;;;49.30;24.83;;;7.10;99.90;;;;;;6131949;23;20454;-76
2022/11/14 02:24:47;;;;;;;46.95;25.70;;;7.00;99.90;;;;;;6158317;23;20014;-76
2022/11/14 02:27:15;;;;;;;49.67;24.40;;;7.10;99.90;;;;;;6132551;23;20025;-76
2022/11/14 02:29:41;;;;;;;49.72;24.17;;;7.10;99.90;;;;;;6131745;23;20045;-76
2022/11/14 02:32:07;;;;;;;52.22;26.38;;;7.10;99.90;;;;;;6158006;23;20021;-76
2022/11/14 02:34:33;;;;;;;48.75;24.70;;;7.10;99.90;;;;;;6131707;23;20014;-75
2022/11/14 02:36:59;;;;;;;50.33;25.10;;;7.10;99.90;;;;;;6131624;23;20127;-75
2022/11/14 02:39:25;;;;;;;48.97;24.48;;;7.10;99.90;;;;;;6158102;23;20438;-76
2022/11/14 02:41:51;;;;;;;53.70;26.73;;;7.10;99.90;;;;;;6131569;23;20013;-76
2022/11/14 02:44:17;;;;;;;49.92;25.17;;;7.10;99.90;;;;;;6131637;23;20056;-76
2022/11/14 02:46:43;;;;;;;50.88;24.92;;;7.00;99.90;;;;;;6131611;23;20386;-75
2022/11/14 02:49:09;;;;;;;52.20;26.60;;;7.00;99.90;;;;;;6157630;23;20053;-76
2022/11/14 02:51:34;;;;;;;49.72;25.80;;;7.00;99.90;;;;;;6131575;23;20076;-75
2022/11/14 02:54:00;;;;;;;45.08;24.50;;;7.00;99.90;;;;;;6157697;23;20026;-75
2022/11/14 02:56:26;;;;;;;49.42;25.30;;;7.00;99.90;;;;;;6131357;23;20018;-75
2022/11/14 02:58:51;;;;;;;53.47;26.05;;;7.00;99.90;;;;;;6157598;23;20017;-75
2022/11/14 03:01:17;;;;;;;46.33;24.45;;;7.00;99.90;;;;;;6156101;23;20017;-76
2022/11/14 03:03:43;;;;;;;51.88;26.90;;;7.00;99.90;;;;;;6131447;23;20049;-76
2022/11/14 03:06:08;;;;;;;50.17;24.35;;;7.00;99.90;;;;;;6131476;23;20049;-76
2022/11/14 03:08:34;;;;;;;51.92;25.52;;;7.00;99.90;;;;;;6131506;23;20068;-75
2022/11/14 03:11:07;;;;;;;52.75;26.73;;;7.00;99.90;;;;;;6131418;23;20029;-75
2022/11/14 03:13:33;;;;;;;52.35;25.77;;;7.00;99.90;;;;;;6157619;23;20009;-76
2022/11/14 03:16:11;;;;;;;55.05;25.55;;;7.10;99.90;;;;;;6131186;23;20101;-76
2022/11/14 03:18:37;;;;;;;52.97;26.80;;;7.00;99.90;;;;;;6131314;23;20021;-76
2022/11/14 03:21:07;;;;;;;53.90;26.65;;;7.00;99.90;;;;;;6131308;23;20018;-76
2022/11/14 03:23:33;;;;;;;53.38;27.92;;;7.00;99.90;;;;;;6131172;23;20028;-76
2022/11/14 03:26:01;;;;;;;51.17;26.00;;;7.00;99.90;;;;;;6131366;23;20021;-76
2022/11/14 03:28:27;;;;;;;52.58;26.20;;;7.00;99.90;;;;;;6157668;23;20100;-76
2022/11/14 03:30:52;;;;;;;55.95;28.20;;;7.00;99.90;;;;;;6131164;23;20021;-75
2022/11/14 03:33:18;;;;;;;51.20;26.33;;;7.10;99.90;;;;;;6131119;23;20016;-76
2022/11/14 03:35:44;;;;;;;55.70;26.33;;;7.10;99.90;;;;;;6131117;23;20025;-76
2022/11/14 03:38:09;;;;;;;53.50;26.95;;;7.10;99.90;;;;;;6131263;23;20393;-76
2022/11/14 03:40:39;;;;;;;49.65;26.17;;;7.10;99.90;;;;;;6157246;23;20469;-75
2022/11/14 03:43:04;;;;;;;53.53;24.75;;;7.10;99.90;;;;;;6131097;23;20018;-75
2022/11/14 03:45:30;;;;;;;52.92;25.10;;;7.10;99.90;;;;;;6157198;23;20032;-75
2022/11/14 03:47:56;;;;;;;56.55;26.13;;;7.10;99.90;;;;;;6157178;23;20029;-76
2022/11/14 03:50:21;;;;;;;56.55;26.70;;;7.20;99.90;;;;;;6130983;23;20014;-76
2022/11/14 03:52:50;;;;;;;53.35;26.10;;;7.10;99.90;;;;;;6131084;23;20403;-76
2022/11/14 03:55:16;;;;;;;53.08;26.10;;;7.20;99.90;;;;;;6157058;23;20021;-76
2022/11/14 03:57:41;;;;;;;47.58;24.17;;;7.20;99.90;;;;;;6131053;23;20025;-76
2022/11/14 04:00:08;;;;;;;53.88;28.08;;;7.20;99.90;;;;;;6131007;23;20084;-75
2022/11/14 04:02:34;;;;;;;50.13;24.40;;;7.20;99.90;;;;;;6131562;23;20096;-76
2022/11/14 04:05:00;;;;;;;51.38;26.02;;;7.20;99.90;;;;;;6157017;23;20410;-76
2022/11/14 04:07:26;;;;;;;48.92;26.42;;;7.20;99.90;;;;;;6130860;23;20465;-75
2022/11/14 04:09:51;;;;;;;55.50;25.13;;;7.20;99.90;;;;;;6156901;23;20039;-75
2022/11/14 04:12:17;;;;;;;47.67;25.85;;;7.20;99.90;;;;;;6130858;23;20523;-76
2022/11/14 04:14:43;;;;;;;49.70;25.60;;;7.30;99.90;;;;;;6130596;23;20024;-76
2022/11/14 04:17:09;;;;;;;51.22;25.63;;;7.20;99.90;;;;;;6157075;23;20025;-76
2022/11/14 04:19:35;;;;;;;53.78;26.73;;;7.20;99.90;;;;;;6130868;23;20018;-76
2022/11/14 04:22:01;;;;;;;50.42;28.52;;;7.20;99.90;;;;;;6157163;23;20024;-76
2022/11/14 04:24:27;;;;;;;53.17;26.35;;;7.20;99.90;;;;;;6130762;23;20434;-75
2022/11/14 04:26:52;;;;;;;50.78;26.42;;;7.10;99.90;;;;;;6130447;23;20021;-75
2022/11/14 04:29:18;;;;;;;53.03;25.88;;;7.10;99.90;;;;;;6130703;23;20461;-76
2022/11/14 04:31:44;;;;;;;52.40;27.02;;;7.10;99.90;;;;;;6130606;23;20017;-76
2022/11/14 04:34:09;;;;;;;47.13;25.42;;;7.10;99.90;;;;;;6130707;23;20017;-76
2022/11/14 04:36:35;;;;;;;50.95;25.85;;;7.20;99.90;;;;;;6130523;23;20027;-76
2022/11/14 04:39:00;;;;;;;50.80;26.60;;;7.20;99.90;;;;;;6130620;23;20442;-76
2022/11/14 04:41:26;;;;;;;46.33;26.75;;;7.10;99.90;;;;;;6156639;23;20072;-76
2022/11/14 04:43:52;;;;;;;53.67;25.73;;;7.10;99.90;;;;;;6156770;23;20020;-76
2022/11/14 04:46:17;;;;;;;48.17;25.15;;;7.10;99.90;;;;;;6156661;23;20338;-76
2022/11/14 04:48:43;;;;;;;51.60;26.63;;;7.10;99.90;;;;;;6130487;23;20453;-76
2022/11/14 04:51:09;;;;;;;51.55;25.42;;;7.10;99.90;;;;;;6130458;23;20442;-76
2022/11/14 04:53:34;;;;;;;50.55;26.98;;;7.10;99.90;;;;;;6130440;23;20019;-76
2022/11/14 04:56:00;;;;;;;49.70;26.30;;;7.10;99.90;;;;;;6130336;23;20017;-77
2022/11/14 04:58:26;;;;;;;52.35;27.40;;;7.10;99.90;;;;;;6130449;23;20018;-76
2022/11/14 05:00:52;;;;;;;51.03;25.60;;;7.00;99.90;;;;;;6130225;23;20307;-76
2022/11/14 05:03:17;;;;;;;47.00;25.05;;;7.10;99.90;;;;;;6130455;23;20459;-76
2022/11/14 05:05:43;;;;;;;48.15;25.45;;;7.10;99.90;;;;;;6130460;23;20458;-76
2022/11/14 05:08:09;;;;;;;51.28;26.67;;;7.00;99.90;;;;;;6156741;23;20085;-76
2022/11/14 05:10:34;;;;;;;52.35;25.15;;;7.00;99.90;;;;;;6156416;23;20332;-76
2022/11/14 05:13:01;;;;;;;50.88;24.63;;;7.00;99.90;;;;;;6156768;23;20013;-76
2022/11/14 05:15:26;;;;;;;47.55;26.00;;;7.00;99.90;;;;;;6129935;23;20029;-76
2022/11/14 05:17:52;;;;;;;46.42;24.67;;;7.00;99.90;;;;;;6130305;23;20076;-76
2022/11/14 05:20:18;;;;;;;49.03;24.50;;;7.00;99.90;;;;;;6130260;23;20107;-76
2022/11/14 05:22:43;;;;;;;50.28;27.13;;;7.00;99.90;;;;;;6130169;23;20018;-76
2022/11/14 05:25:09;;;;;;;49.72;26.67;;;7.10;99.90;;;;;;6130105;23;20056;-76
2022/11/14 05:27:35;;;;;;;50.95;26.05;;;7.00;99.90;;;;;;6130102;23;20018;-76
2022/11/14 05:30:01;;;;;;;54.38;28.35;;;7.00;99.90;;;;;;6130203;23;20030;-76
2022/11/14 05:32:26;;;;;;;50.05;26.08;;;7.00;99.90;;;;;;6156587;23;20434;-75
2022/11/14 05:34:52;;;;;;;53.63;26.48;;;7.00;99.90;;;;;;6130159;23;20053;-75
2022/11/14 05:37:18;;;;;;;47.55;25.55;;;7.00;99.90;;;;;;6129662;23;20029;-75
2022/11/14 05:39:43;;;;;;;51.92;25.85;;;6.90;99.90;;;;;;6130166;23;20446;-76
2022/11/14 05:42:09;;;;;;;49.58;25.88;;;7.00;99.90;;;;;;6130214;23;20068;-76
2022/11/14 05:44:34;;;;;;;52.60;27.85;;;7.10;99.90;;;;;;6156273;23;20033;-76
2022/11/14 05:47:00;;;;;;;48.83;27.40;;;7.00;99.90;;;;;;6156557;23;20016;-75
2022/11/14 05:49:26;;;;;;;55.20;28.23;;;7.00;99.90;;;;;;6130089;23;20461;-76
2022/11/14 05:51:51;;;;;;;54.78;28.35;;;6.90;99.90;;;;;;6130170;23;20018;-76
2022/11/14 05:54:17;;;;;;;52.45;27.48;;;7.00;99.90;;;;;;6130023;23;20052;-76
2022/11/14 05:56:42;;;;;;;54.53;29.30;;;6.90;99.90;;;;;;6156358;23;20129;-75
2022/11/14 05:59:08;;;;;;;55.95;27.98;;;6.90;99.90;;;;;;6130095;23;20045;-76
2022/11/14 06:01:34;;;;;;;51.85;27.60;;;6.90;99.90;;;;;;6129995;23;20022;-76
2022/11/14 06:03:59;;;;;;;54.10;28.83;;;7.00;99.90;;;;;;6156425;23;20018;-76
2022/11/14 06:06:25;;;;;;;56.97;29.30;;;7.00;99.90;;;;;;6130031;23;20017;-76
2022/11/14 06:08:52;;;;;;;55.38;28.70;;;6.90;99.90;;;;;;6130045;23;20017;-75
2022/11/14 06:11:19;;;;;;;56.00;27.48;;;6.90;99.90;;;;;;6129927;23;20037;-76
2022/11/14 06:13:45;;;;;;;56.70;28.15;;;6.90;99.90;;;;;;6129688;23;20454;-76
2022/11/14 06:16:17;;;;;;;53.03;27.77;;;6.90;99.90;;;;;;6156361;23;20018;-76
2022/11/14 06:18:43;;;;;;;50.67;27.13;;;6.80;99.90;;;;;;6129856;23;20466;-76
2022/11/14 06:21:20;;;;;;;52.42;26.27;;;6.90;99.90;;;;;;6156059;23;20018;-76
2022/11/14 06:23:47;;;;;;;54.45;25.23;;;6.90;99.90;;;;;;6129929;23;20022;-76
2022/11/14 06:26:24;;;;;;;52.53;27.50;;;6.90;99.90;;;;;;6156271;23;20025;-76
2022/11/14 06:28:51;;;;;;;50.15;25.80;;;6.80;99.90;;;;;;6129907;23;20020;-76
2022/11/14 06:31:18;;;;;;;48.08;25.88;;;6.80;99.90;;;;;;6129758;23;20410;-76
2022/11/14 06:33:44;;;;;;;51.50;26.33;;;6.90;99.90;;;;;;6155966;23;20028;-76
2022/11/14 06:36:11;;;;;;;46.65;24.65;;;6.90;99.90;;;;;;6129778;23;20053;-76
2022/11/14 06:38:38;;;;;;;50.05;25.42;;;6.80;99.90;;;;;;6156069;23;20079;-76
2022/11/14 06:41:11;;;;;;;49.78;27.13;;;6.80;99.90;;;;;;6129848;23;20032;-75
2022/11/14 06:43:45;;;;;;;51.13;25.95;;;6.80;99.90;;;;;;6129978;23;20022;-76
2022/11/14 06:46:16;;;;;;;50.20;26.90;;;6.80;99.90;;;;;;6129730;23;20024;-76
2022/11/14 06:48:42;;;;;;;50.40;27.13;;;6.70;99.90;;;;;;6130215;23;20334;-76
2022/11/14 06:51:10;;;;;;;52.38;26.55;;;6.80;99.90;;;;;;6131653;23;20013;-76
2022/11/14 06:53:36;;;;;;;50.03;25.70;;;6.70;99.90;;;;;;6157892;23;20064;-76
2022/11/14 06:56:13;;;;;;;47.78;25.27;;;6.60;99.90;;;;;;6131152;23;20018;-76
2022/11/14 06:58:44;;;;;;;49.80;26.00;;;6.60;99.90;;;;;;6157719;23;20089;-76
2022/11/14 07:01:12;;;;;;;54.53;28.02;;;6.60;99.90;;;;;;6131103;23;20526;-75
2022/11/14 07:03:38;;;;;;;53.78;27.08;;;6.70;99.90;;;;;;6130889;23;20057;-76
2022/11/14 07:06:05;;;;;;;48.63;25.48;;;6.70;99.90;;;;;;6130951;23;20021;-76
2022/11/14 07:08:31;;;;;;;51.60;26.60;;;6.70;99.90;;;;;;6130086;23;20103;-76
2022/11/14 07:11:05;;;;;;;49.63;25.25;;;6.60;99.90;;;;;;6157225;23;20053;-75
2022/11/14 07:13:31;;;;;;;56.03;27.00;;;6.60;99.90;;;;;;6157455;23;20017;-76
2022/11/14 07:15:57;;;;;;;53.13;25.88;;;6.60;99.90;;;;;;6157255;23;20334;-76
2022/11/14 07:18:23;;;;;;;53.08;27.17;;;6.60;99.90;;;;;;6131211;23;20086;-76
2022/11/14 07:20:49;;;;;;;48.75;25.73;;;6.50;99.90;;;;;;6131254;23;20090;-76
2022/11/14 07:23:14;;;;;;;53.97;26.85;;;6.50;99.90;;;;;;6131196;23;20040;-76
2022/11/14 07:25:40;;;;;;;52.00;26.20;;;6.50;99.90;;;;;;6131179;23;20024;-76
2022/11/14 07:28:06;;;;;;;53.47;25.98;;;6.60;99.90;;;;;;6131090;23;20048;-75
2022/11/14 07:30:32;;;;;;;57.58;26.15;;;6.50;99.90;;;;;;6157151;23;20350;-75
2022/11/14 07:32:58;;;;;;;53.45;27.20;;;6.60;99.90;;;;;;6131383;23;20011;-76
2022/11/14 07:35:24;;;;;;;48.95;25.05;;;6.60;99.90;;;;;;6130900;23;20052;-76
2022/11/14 07:37:50;;;;;;;56.47;26.63;;;6.60;99.90;;;;;;6131001;23;20017;-77
2022/11/14 07:40:17;;;;;;;52.00;26.35;;;6.60;99.90;;;;;;6130932;23;20018;-76
2022/11/14 07:42:43;;;;;;;51.95;26.67;;;6.50;99.90;;;;;;6130846;23;20025;-76
2022/11/14 07:45:09;;;;;;;55.80;28.42;;;6.60;99.90;;;;;;6130910;23;20045;-75
2022/11/14 07:47:35;;;;;;;53.53;26.42;;;6.60;99.90;;;;;;6130833;23;20022;-77
2022/11/14 07:50:01;;;;;;;56.35;26.40;;;6.50;99.90;;;;;;6130836;23;20014;-76
2022/11/14 07:52:26;;;;;;;56.47;28.08;;;6.50;99.90;;;;;;6156459;23;20022;-76
2022/11/14 07:54:52;;;;;;;57.17;28.17;;;6.50;99.90;;;;;;6156520;23;20032;-76
2022/11/14 07:57:18;;;;;;;54.17;27.25;;;6.60;99.90;;;;;;6130498;23;20033;-76
2022/11/14 07:59:43;;;;;;;53.17;27.25;;;6.60;99.90;;;;;;6156518;23;20458;-76
2022/11/14 08:02:13;;;;;;;53.60;24.20;;;6.60;99.90;;;;;;6156440;23;20071;-76
2022/11/14 08:04:40;;;;;;;50.55;27.10;;;6.60;99.90;;;;;;6130416;23;20018;-76
2022/11/14 08:07:06;;;;;;;53.40;27.83;;;6.60;99.90;;;;;;6130531;23;20474;-76
2022/11/14 08:09:31;;;;;;;58.50;30.05;;;6.60;99.90;;;;;;6156682;23;20017;-76
2022/11/14 08:11:57;;;;;;;59.83;29.45;;;6.60;99.90;;;;;;6130369;23;20059;-76
2022/11/14 08:14:23;;;;;;;58.88;28.08;;;6.60;99.90;;;;;;6130256;23;20022;-76
2022/11/14 08:16:49;;;;;;;61.30;29.77;;;6.60;99.90;;;;;;6156669;23;20026;-76
2022/11/14 08:19:15;;;;;;;55.90;26.95;;;6.60;99.90;;;;;;6156740;23;20034;-76
2022/11/14 08:21:41;;;;;;;54.70;27.08;;;6.60;99.90;;;;;;6156897;23;20017;-76
2022/11/14 08:24:07;;;;;;;55.22;28.23;;;6.60;99.90;;;;;;6156274;23;20045;-76
2022/11/14 08:26:33;;;;;;;61.28;29.60;;;6.60;99.90;;;;;;6156630;23;20021;-76
2022/11/14 08:28:59;;;;;;;53.85;27.20;;;6.60;99.90;;;;;;6156660;23;20029;-76
2022/11/14 08:31:25;;;;;;;56.05;29.08;;;6.60;99.90;;;;;;6156579;23;20022;-77
2022/11/14 08:33:51;;;;;;;55.13;26.95;;;6.50;99.90;;;;;;6156798;23;20014;-76
2022/11/14 08:36:17;;;;;;;57.22;27.25;;;6.50;99.90;;;;;;6156779;23;20059;-76
2022/11/14 08:38:43;;;;;;;60.25;28.50;;;6.50;99.90;;;;;;6156247;23;20201;-77
2022/11/14 08:41:09;;;;;;;55.78;27.77;;;6.60;99.90;;;;;;6155927;23;20056;-77
2022/11/14 08:43:34;;;;;;;56.20;27.48;;;6.50;99.90;;;;;;6129976;23;20025;-76
2022/11/14 08:46:02;;;;;;;51.58;27.35;;;6.60;99.90;;;;;;6130153;23;20025;-76
2022/11/14 08:48:28;;;;;;;56.80;27.60;;;6.50;99.90;;;;;;6156241;23;20382;-77
2022/11/14 08:50:54;;;;;;;57.78;25.30;;;6.50;99.90;;;;;;6156515;23;20021;-77
2022/11/14 08:53:20;;;;;;;57.17;29.23;;;6.50;99.90;;;;;;6129977;23;20021;-76
2022/11/14 08:55:47;;;;;;;56.60;26.60;;;6.50;99.90;;;;;;6129767;23;20018;-76
2022/11/14 08:58:12;;;;;;;52.70;25.75;;;6.50;99.90;;;;;;6156137;23;20435;-77
2022/11/14 09:00:38;;;;;;;59.05;27.65;;;6.40;99.90;;;;;;6130148;23;20037;-76
2022/11/14 09:03:08;;;;;;;50.10;25.35;;;6.50;99.90;;;;;;6156538;23;20021;-76
2022/11/14 09:05:34;;;;;;;52.28;25.52;;;6.50;99.90;;;;;;6156165;23;20473;-76
2022/11/14 09:08:00;;;;;;;55.40;28.58;;;6.50;99.90;;;;;;6129556;23;20013;-76
2022/11/14 09:10:26;;;;;;;51.85;24.95;;;6.60;99.90;;;;;;6129533;23;20020;-77
2022/11/14 09:12:59;;;;;;;54.03;26.48;;;6.50;99.90;;;;;;6156347;23;20017;-76
2022/11/14 09:15:26;;;;;;;;;;;6.60;99.90;;;;;;6156443;23;20121;-76
2022/11/14 09:17:53;;;;;;;47.22;24.23;;;6.60;99.90;;;;;;6129869;23;20260;-76
2022/11/14 09:20:19;;;;;;;54.20;25.55;;;6.50;99.90;;;;;;6156308;23;20029;-76
2022/11/14 09:22:45;;;;;;;55.20;27.17;;;6.60;99.90;;;;;;6155902;23;20032;-76
2022/11/14 09:25:11;;;;;;;53.45;26.70;;;6.70;99.90;;;;;;6156306;23;20013;-76
2022/11/14 09:27:37;;;;;;;53.35;25.95;;;6.70;99.90;;;;;;6156241;23;20341;-76
2022/11/14 09:30:04;;;;;;;54.22;27.15;;;6.70;99.90;;;;;;6129851;23;20024;-77
2022/11/14 09:32:30;;;;;;;58.22;28.40;;;6.70;99.90;;;;;;6129671;23;20021;-77
2022/11/14 09:34:55;;;;;;;54.67;27.02;;;6.70;99.90;;;;;;6156233;23;20089;-78
2022/11/14 09:37:21;;;;;;;53.42;26.95;;;6.80;99.90;;;;;;6155796;23;20024;-76
2022/11/14 09:39:46;;;;;;;56.60;27.10;;;6.80;99.90;;;;;;6155755;23;20520;-77
2022/11/14 09:42:31;;;;;;;52.28;26.58;;;6.80;99.90;;;;;;6155698;23;20052;-77
2022/11/14 09:45:02;;;;;;;54.15;27.30;;;6.80;99.90;;;;;;6156191;23;20041;-77
2022/11/14 09:47:49;;;;;;;52.83;25.52;;;6.70;99.90;;;;;;6155748;23;20049;-77
2022/11/14 09:50:31;;;;;;;50.28;26.02;;;6.70;99.90;;;;;;6129860;23;20018;-77
2022/11/14 09:53:02;;;;;;;51.85;25.00;;;6.80;99.90;;;;;;6155172;23;20497;-77
2022/11/14 09:55:30;;;;;;;53.55;26.50;;;6.80;99.90;;;;;;6154776;23;20071;-77
2022/11/14 09:57:56;;;;;;;54.28;27.88;;;6.80;99.90;;;;;;6128393;23;20028;-77
2022/11/14 10:00:33;;;;;;;59.47;29.33;;;6.90;99.90;;;;;;6155436;23;20014;-77
2022/11/14 10:03:18;;;;;;;53.47;26.90;;;6.90;99.90;;;;;;6129680;23;20021;-77
2022/11/14 10:06:01;;;;;;;58.97;28.17;;;7.00;99.90;;;;;;6155908;23;20025;-77
2022/11/14 10:08:45;;;;;;;52.60;29.15;;;7.10;99.90;;;;;;6156011;23;20018;-76
2022/11/14 10:11:38;;;;;;;53.75;27.08;;;7.10;99.90;;;;;;6129578;23;20446;-77
2022/11/14 10:14:49;;;;;;;56.53;27.88;;;7.10;99.90;;;;;;6155502;23;20472;-77
2022/11/14 10:17:17;;;;;;;56.00;28.55;;;7.20;99.90;;;;;;6155786;23;20027;-77
2022/11/14 10:20:02;;;;;;;51.67;26.00;;;7.40;99.90;;;;;;6155759;23;20020;-76
2022/11/14 10:22:45;;;;;;;51.15;27.58;;;7.50;99.90;;;;;;6129356;23;20029;-77
2022/11/14 10:25:47;;;;;;;53.97;28.45;;;7.60;99.90;;;;;;6157029;23;20029;-76
2022/11/14 10:28:16;;;;;;;54.47;26.92;;;7.80;99.90;;;;;;6131411;23;20021;-76
2022/11/14 10:31:09;;;;;;;50.90;27.15;;;7.90;99.90;;;;;;6131068;23;20014;-76
2022/11/14 10:34:06;;;;;;;44.50;24.60;;;7.70;99.90;;;;;;6131273;23;20063;-77
2022/11/14 10:36:46;;;;;;;48.92;26.15;;;7.70;99.90;;;;;;6131320;23;20101;-77
2022/11/14 10:39:34;;;;;;;51.92;27.60;;;7.60;99.90;;;;;;6157743;23;20053;-76
2022/11/14 10:42:07;;;;;;;48.80;26.25;;;7.60;99.90;;;;;;6130847;23;20442;-76
2022/11/14 10:44:35;;;;;;;;;;;7.80;99.90;;;;;;6157719;23;20454;-77
2022/11/14 10:47:05;;;;;;;51.22;26.55;;;7.80;99.90;;;;;;6157686;23;19924;-77
2022/11/14 10:49:37;;;;;;;50.33;26.25;;;8.00;99.90;;;;;;6157717;23;20018;-77
2022/11/14 10:52:11;;;;;;;49.75;26.13;;;8.00;99.90;;;;;;6157200;23;20068;-78
2022/11/14 10:54:43;;;;;;;50.47;26.25;;;7.90;99.90;;;;;;6154971;23;20021;-77
2022/11/14 10:57:18;;;;;;;49.55;26.90;;;7.90;99.90;;;;;;6155743;23;20446;-76
2022/11/14 10:59:43;;;;;;;48.50;27.60;;;8.00;99.90;;;;;;6131171;23;20029;-76
2022/11/14 11:02:10;;;;;;;49.08;28.35;;;7.90;99.90;;;;;;6156587;23;20018;-77
2022/11/14 11:04:38;;;;;;;46.10;26.48;;;7.70;99.90;;;;;;6130544;23;20014;-76
2022/11/14 11:07:07;;;;;;;47.83;27.60;;;7.80;99.90;;;;;;6157270;23;20030;-76
2022/11/14 11:12:41;;;;;;;46.63;25.47;;;7.90;99.90;;;;;;6157285;23;20035;-76
2022/11/14 11:15:13;;;;;;;49.75;27.08;;;7.90;99.90;;;;;;6156969;23;20013;-76
2022/11/14 11:17:56;;;;;;;50.45;28.02;;;7.80;99.90;;;;;;6130820;23;20382;-76
2022/11/14 11:20:36;;;;;;;49.33;26.88;;;7.90;99.90;;;;;;6131163;23;20022;-76
2022/11/14 11:23:10;;;;;;;50.35;26.35;;;7.80;99.90;;;;;;6157080;23;20315;-76
2022/11/14 11:25:38;;;;;;;47.53;25.95;;;7.90;99.90;;;;;;6130928;23;20346;-76
2022/11/14 11:28:21;;;;;;;42.75;24.70;;;8.00;99.90;;;;;;6157081;23;20401;-76
2022/11/14 11:31:00;;;;;;;51.17;25.95;;;8.00;99.90;;;;;;6157033;23;20021;-77
2022/11/14 11:33:28;;;;;;;45.90;26.00;;;8.10;99.90;;;;;;6130990;23;20327;-77
2022/11/14 11:36:04;;;;;;;43.95;24.83;;;8.10;99.90;;;;;;6130063;23;20022;-77
2022/11/14 11:38:31;;;;;;;45.65;24.00;;;8.10;99.90;;;;;;6156906;23;20312;-77
2022/11/14 11:41:11;;;;;;;42.58;25.02;;;8.20;99.90;;;;;;6130690;23;20049;-77
2022/11/14 11:43:45;;;;;;;43.65;26.50;;;8.10;99.90;;;;;;6130815;23;20025;-77
2022/11/14 11:46:43;;;;;;;42.50;24.60;;;8.20;99.90;;;;;;6157122;23;20063;-77
2022/11/14 11:49:17;;;;;;;43.67;26.35;;;8.30;99.90;;;;;;6130612;23;20028;-77
2022/11/14 11:51:44;;;;;;;42.88;26.20;;;8.20;99.90;;;;;;6130596;23;20378;-77
2022/11/14 11:54:10;;;;;;;43.92;26.08;;;8.10;99.90;;;;;;6156821;23;20462;-77
2022/11/14 11:56:37;;;;;;;46.30;25.02;;;8.10;99.90;;;;;;6156638;23;20033;-77
2022/11/14 11:59:36;;;;;;;43.97;26.45;;;8.20;99.90;;;;;;6157226;23;20032;-77
2022/11/14 12:02:22;;;;;;;56.53;26.90;;;8.00;99.90;;;;;;6156637;23;20445;-77
2022/11/14 12:04:50;;;;;;;46.50;25.20;;;8.00;99.90;;;;;;6130574;23;20462;-77
2022/11/14 12:07:23;;;;;;;47.13;26.92;;;8.00;99.90;;;;;;6156548;23;20076;-76
2022/11/14 12:09:51;;;;;;;48.28;26.42;;;8.10;99.90;;;;;;6130603;23;20045;-76
2022/11/14 12:12:42;;;;;;;45.33;26.02;;;8.20;99.90;;;;;;6130443;23;20025;-76
2022/11/14 12:15:42;;;;;;;45.90;26.42;;;8.20;99.90;;;;;;6130256;23;20028;-77
2022/11/14 12:18:25;;;;;;;44.38;25.67;;;8.20;99.90;;;;;;6130420;23;20398;-76
2022/11/14 12:20:54;;;;;;;46.17;26.77;;;8.30;99.90;;;;;;6130491;23;20045;-77
2022/11/14 12:24:02;;;;;;;44.90;26.75;;;8.20;99.90;;;;;;6156665;23;20063;-77
2022/11/14 12:26:43;;;;;;;44.63;25.40;;;8.20;99.90;;;;;;6156687;23;20032;-77
2022/11/14 12:29:38;;;;;;;48.33;26.92;;;8.20;99.90;;;;;;6130382;23;20014;-77
2022/11/14 12:32:11;;;;;;;45.78;26.48;;;8.30;99.90;;;;;;6156381;23;20511;-76
2022/11/14 12:34:41;;;;;;;47.70;27.02;;;8.40;99.90;;;;;;6156374;23;20021;-76
2022/11/14 12:37:09;;;;;;;44.83;27.25;;;8.50;99.90;;;;;;6129808;23;20061;-76
2022/11/14 12:39:36;;;;;;;47.40;27.15;;;8.40;99.90;;;;;;6156263;23;20026;-76
2022/11/14 12:42:04;;;;;;;48.65;27.00;;;8.60;99.90;;;;;;6156741;23;20060;-76
2022/11/14 12:44:35;;;;;;;46.65;25.30;;;8.60;99.90;;;;;;6130167;23;20520;-77
2022/11/14 12:47:04;;;;;;;46.20;26.40;;;8.60;99.90;;;;;;6154466;23;20026;-77
2022/11/14 12:49:51;;;;;;;46.80;27.00;;;8.50;99.90;;;;;;6130277;23;20025;-77
2022/11/14 12:52:49;;;;;;;47.47;27.42;;;8.50;99.90;;;;;;6156660;23;20026;-76